Time;durP1;ratioP1;P1;durP2;ratioP2;P2;SDS_P1;SDS_P2;PMS_P1;PMS_P2;Temp;Humidity;BMP_temperature;BMP_pressure;BME280_temperature;BME280_humidity;BME280_pressure;Samples;Min_cycle;Max_cycle;Signal;HPM_P1;HPM_P2
2022/08/22 00:02:29;;;;;;;6.32;2.40;;;25.40;50.10;;;;;;10062061;28;20029;-66
2022/08/22 00:07:32;;;;;;;5.90;2.05;;;25.20;50.20;;;;;;10050588;28;20045;-66
2022/08/22 00:12:48;;;;;;;8.40;2.80;;;25.10;50.50;;;;;;10061079;28;20138;-66
2022/08/22 00:18:01;;;;;;;3.75;1.90;;;25.20;50.60;;;;;;10051291;28;20136;-66
2022/08/22 00:23:23;;;;;;;8.10;2.42;;;25.10;50.80;;;;;;10052784;28;20376;-65
2022/08/22 00:28:47;;;;;;;5.05;1.98;;;25.20;51.00;;;;;;10055632;28;20045;-67
2022/08/22 00:33:47;;;;;;;4.03;2.30;;;25.00;51.00;;;;;;10024059;28;20201;-68
2022/08/22 00:38:44;;;;;;;3.83;2.10;;;25.10;51.10;;;;;;10066229;28;20017;-66
2022/08/22 00:43:44;;;;;;;5.28;1.60;;;25.20;51.00;;;;;;10055936;28;20034;-66
2022/08/22 00:48:59;;;;;;;3.25;1.58;;;25.20;51.10;;;;;;10060769;28;20517;-66
2022/08/22 00:54:09;;;;;;;3.10;1.58;;;25.10;51.40;;;;;;10054648;28;20340;-66
2022/08/22 00:59:15;;;;;;;2.83;1.45;;;25.10;51.50;;;;;;10067725;28;20028;-66
2022/08/22 01:04:28;;;;;;;4.70;1.65;;;25.00;51.60;;;;;;10054396;28;20561;-66
2022/08/22 01:09:21;;;;;;;6.28;1.73;;;25.00;52.00;;;;;;10060912;28;20038;-66
2022/08/22 01:14:26;;;;;;;3.25;2.30;;;24.80;52.20;;;;;;10060473;28;20025;-66
2022/08/22 01:20:14;;;;;;;5.22;2.30;;;24.70;52.60;;;;;;10050806;28;20030;-66
2022/08/22 01:25:17;;;;;;;3.33;2.17;;;24.60;53.40;;;;;;9969351;28;20048;-66
2022/08/22 01:30:46;;;;;;;4.95;2.13;;;24.40;54.30;;;;;;10023900;28;20059;-66
2022/08/22 01:35:40;;;;;;;6.03;2.45;;;24.20;55.60;;;;;;10062242;28;20044;-65
2022/08/22 01:40:55;;;;;;;5.70;2.88;;;24.10;55.90;;;;;;10061028;28;20045;-66
2022/08/22 01:46:14;;;;;;;3.05;2.05;;;24.00;56.90;;;;;;10063373;28;20037;-65
2022/08/22 01:51:24;;;;;;;5.38;2.42;;;24.00;57.70;;;;;;10053350;28;20034;-65
2022/08/22 01:56:20;;;;;;;2.83;1.75;;;24.10;58.20;;;;;;10051123;28;20426;-66
2022/08/22 02:01:32;;;;;;;2.97;1.95;;;24.10;58.50;;;;;;10051945;28;20079;-66
2022/08/22 02:06:43;;;;;;;4.05;1.90;;;24.10;59.40;;;;;;10077013;28;20029;-66
2022/08/22 02:11:53;;;;;;;2.42;2.05;;;24.00;59.80;;;;;;10031310;28;20095;-67
2022/08/22 02:16:50;;;;;;;5.75;2.90;;;24.00;59.70;;;;;;10056465;28;20029;-66
2022/08/22 02:22:22;;;;;;;4.78;2.17;;;23.90;59.60;;;;;;10052725;28;20024;-67
2022/08/22 02:27:29;;;;;;;4.00;2.63;;;23.80;60.30;;;;;;10047064;28;20049;-66
2022/08/22 02:32:49;;;;;;;2.92;1.92;;;23.80;60.60;;;;;;10063053;28;20026;-66
2022/08/22 02:37:56;;;;;;;5.75;2.08;;;23.60;61.30;;;;;;10036404;28;20132;-66
2022/08/22 02:43:08;;;;;;;4.72;1.85;;;23.60;61.10;;;;;;10045192;28;20056;-66
2022/08/22 02:48:02;;;;;;;2.83;2.08;;;23.30;61.80;;;;;;10053881;28;20630;-66
2022/08/22 02:52:56;;;;;;;3.55;1.92;;;23.20;61.80;;;;;;10049121;28;20040;-66
2022/08/22 02:58:20;;;;;;;7.10;2.35;;;23.00;61.70;;;;;;10044199;28;20041;-66
2022/08/22 03:03:27;;;;;;;5.85;2.15;;;22.80;62.10;;;;;;10018494;28;20517;-66
2022/08/22 03:08:30;;;;;;;5.15;2.65;;;22.80;62.30;;;;;;10058808;28;20108;-66
2022/08/22 03:13:34;;;;;;;4.68;2.17;;;22.80;62.10;;;;;;10052302;28;20401;-67
2022/08/22 03:18:53;;;;;;;4.15;3.42;;;22.70;62.30;;;;;;10054576;28;20539;-66
2022/08/22 03:23:58;;;;;;;4.82;2.25;;;22.50;62.90;;;;;;10050976;28;20033;-66
2022/08/22 03:28:55;;;;;;;4.28;2.65;;;22.40;63.20;;;;;;10051564;28;20041;-65
2022/08/22 03:34:20;;;;;;;3.45;2.17;;;22.30;63.60;;;;;;10029982;28;20068;-66
2022/08/22 03:39:21;;;;;;;2.33;1.88;;;22.40;63.80;;;;;;10058637;28;20514;-66
2022/08/22 03:44:48;;;;;;;3.53;2.70;;;22.30;64.10;;;;;;10059034;28;20046;-66
2022/08/22 03:50:03;;;;;;;4.40;2.33;;;22.40;64.00;;;;;;10055037;28;20112;-66
2022/08/22 03:55:30;;;;;;;4.10;2.20;;;22.20;64.50;;;;;;10048806;28;20110;-66
2022/08/22 04:00:49;;;;;;;3.58;2.22;;;22.30;64.30;;;;;;10062605;28;20025;-66
2022/08/22 04:06:11;;;;;;;5.85;2.17;;;22.10;64.60;;;;;;10043722;28;20049;-65
2022/08/22 04:11:10;;;;;;;5.43;3.00;;;22.10;64.90;;;;;;10046259;28;20121;-65
2022/08/22 04:16:13;;;;;;;3.55;2.10;;;22.20;64.70;;;;;;10055178;28;20105;-65
2022/08/22 04:21:46;;;;;;;6.80;2.42;;;22.00;65.20;;;;;;10046723;28;20021;-65
2022/08/22 04:26:51;;;;;;;4.15;2.88;;;21.90;65.60;;;;;;10069428;28;20057;-66
2022/08/22 04:31:55;;;;;;;4.75;2.40;;;21.90;65.70;;;;;;10056693;28;20025;-65
2022/08/22 04:36:54;;;;;;;5.55;2.55;;;21.90;66.00;;;;;;10052602;28;20029;-65
2022/08/22 04:41:51;;;;;;;3.88;2.35;;;21.90;66.20;;;;;;10060940;28;20033;-66
2022/08/22 04:46:48;;;;;;;5.13;1.98;;;21.80;66.60;;;;;;10055966;28;20037;-66
2022/08/22 04:51:44;;;;;;;5.43;2.20;;;21.80;66.80;;;;;;10048970;28;20026;-66
2022/08/22 04:56:41;;;;;;;4.18;1.95;;;21.80;67.10;;;;;;10055885;28;20061;-66
2022/08/22 05:01:43;;;;;;;5.00;2.35;;;21.70;67.90;;;;;;10070941;28;20030;-66
2022/08/22 05:06:41;;;;;;;2.40;1.95;;;21.80;67.90;;;;;;10051798;28;20032;-66
2022/08/22 05:11:34;;;;;;;4.85;2.90;;;21.80;67.90;;;;;;10059028;28;20033;-66
2022/08/22 05:16:35;;;;;;;5.93;2.72;;;21.80;68.30;;;;;;10060827;28;20038;-66
2022/08/22 05:21:32;;;;;;;3.92;2.67;;;21.80;68.70;;;;;;10054043;28;20010;-67
2022/08/22 05:26:25;;;;;;;5.07;2.42;;;21.80;68.90;;;;;;10054045;28;20404;-66
2022/08/22 05:31:37;;;;;;;4.10;2.50;;;21.80;69.20;;;;;;10043688;28;20022;-66
2022/08/22 05:36:34;;;;;;;4.00;2.55;;;21.80;69.80;;;;;;10056102;28;20523;-65
2022/08/22 05:41:27;;;;;;;4.13;2.85;;;21.70;70.10;;;;;;10059510;28;20110;-66
2022/08/22 05:46:22;;;;;;;3.45;2.97;;;21.80;70.30;;;;;;10054849;28;20471;-66
2022/08/22 05:51:20;;;;;;;;;;;21.90;70.60;;;;;;10053164;28;20220;-66
2022/08/22 05:56:44;;;;;;;4.07;2.83;;;21.80;71.00;;;;;;10059682;28;20133;-65
2022/08/22 06:01:45;;;;;;;7.22;3.15;;;21.90;71.20;;;;;;10050247;28;20580;-66
2022/08/22 06:07:06;;;;;;;4.72;2.70;;;22.10;71.20;;;;;;10050038;28;20033;-66
2022/08/22 06:12:11;;;;;;;6.13;3.25;;;22.00;71.90;;;;;;10057125;28;20025;-66
2022/08/22 06:17:05;;;;;;;;;;;21.90;72.50;;;;;;10059872;28;20036;-67
2022/08/22 06:21:56;;;;;;;5.72;3.33;;;22.00;72.70;;;;;;10035995;28;19905;-66
2022/08/22 06:26:50;;;;;;;4.75;2.55;;;22.00;72.60;;;;;;10061756;28;20096;-66
2022/08/22 06:31:45;;;;;;;4.10;3.00;;;22.20;72.50;;;;;;10052262;28;20026;-66
2022/08/22 06:36:39;;;;;;;7.10;3.28;;;22.30;72.60;;;;;;10055856;28;20024;-66
2022/08/22 06:41:34;;;;;;;7.07;3.13;;;22.50;72.60;;;;;;10057684;28;20117;-66
2022/08/22 06:46:28;;;;;;;3.85;2.70;;;22.60;72.70;;;;;;10055964;28;20519;-67
2022/08/22 06:51:20;;;;;;;6.43;2.50;;;22.70;73.00;;;;;;10035034;28;20037;-66
2022/08/22 06:56:12;;;;;;;4.32;2.88;;;22.70;72.70;;;;;;10042788;28;20159;-66
2022/08/22 07:01:07;;;;;;;3.28;2.30;;;22.70;72.80;;;;;;10057495;28;20036;-66
2022/08/22 07:05:58;;;;;;;5.72;3.15;;;22.80;72.90;;;;;;10057235;28;20111;-66
2022/08/22 07:11:04;;;;;;;9.23;3.83;;;23.10;72.30;;;;;;10045382;28;20116;-67
2022/08/22 07:15:58;;;;;;;7.75;3.50;;;23.10;72.00;;;;;;10062151;28;20033;-67
2022/08/22 07:20:58;;;;;;;6.53;3.08;;;23.20;71.90;;;;;;10046748;28;20014;-66
2022/08/22 07:26:03;;;;;;;5.13;3.00;;;23.30;71.70;;;;;;10054804;28;20617;-67
2022/08/22 07:31:01;;;;;;;3.33;2.53;;;23.50;71.30;;;;;;10031906;28;20481;-66
2022/08/22 07:35:59;;;;;;;3.45;2.40;;;23.80;70.80;;;;;;10047320;28;20172;-66
2022/08/22 07:40:49;;;;;;;6.30;2.58;;;24.00;70.30;;;;;;10064429;28;20033;-66
2022/08/22 07:45:58;;;;;;;9.63;3.08;;;24.00;70.10;;;;;;10063329;28;20157;-66
2022/08/22 07:51:13;;;;;;;7.47;2.90;;;24.00;70.00;;;;;;10061569;28;20470;-66
2022/08/22 07:56:07;;;;;;;5.15;3.13;;;24.10;69.70;;;;;;10057841;28;20032;-66
2022/08/22 08:00:58;;;;;;;7.57;2.70;;;24.20;69.50;;;;;;10070274;28;20087;-66
2022/08/22 08:05:49;;;;;;;5.95;3.00;;;24.50;69.00;;;;;;10057034;28;20645;-66
2022/08/22 08:10:40;;;;;;;3.67;2.95;;;24.60;68.80;;;;;;10056927;28;20118;-65
2022/08/22 08:15:34;;;;;;;5.65;3.40;;;24.70;68.30;;;;;;10067598;28;20392;-65
2022/08/22 08:20:27;;;;;;;8.43;3.00;;;24.70;68.00;;;;;;10046856;28;20510;-66
2022/08/22 08:25:23;;;;;;;7.93;3.40;;;24.70;67.90;;;;;;10047936;28;20040;-67
2022/08/22 08:30:22;;;;;;;6.80;3.33;;;24.80;67.90;;;;;;10078056;28;20049;-65
2022/08/22 08:35:30;;;;;;;8.38;2.72;;;25.00;67.60;;;;;;10077332;28;20033;-66
2022/08/22 08:40:46;;;;;;;4.80;2.75;;;25.10;67.30;;;;;;10073531;28;20030;-65
2022/08/22 08:46:13;;;;;;;9.98;3.20;;;25.10;67.30;;;;;;10062364;28;20040;-66
2022/08/22 08:51:12;;;;;;;8.30;3.10;;;25.30;67.20;;;;;;10065400;28;20108;-66
2022/08/22 08:56:17;;;;;;;5.35;2.53;;;25.30;67.20;;;;;;10049914;28;20504;-65
2022/08/22 09:01:10;;;;;;;5.35;2.90;;;25.30;67.30;;;;;;10046672;28;20010;-65
2022/08/22 09:06:40;;;;;;;9.32;2.88;;;25.30;67.40;;;;;;10074367;28;20094;-67
2022/08/22 09:12:07;;;;;;;11.23;3.00;;;25.30;67.00;;;;;;10046223;28;20029;-66
2022/08/22 09:17:28;;;;;;;5.55;3.20;;;25.50;67.00;;;;;;10056091;28;20463;-66
2022/08/22 09:22:30;;;;;;;5.18;3.17;;;25.60;67.30;;;;;;10054537;28;20021;-67
2022/08/22 09:27:33;;;;;;;7.10;2.70;;;25.80;66.60;;;;;;10065518;28;20045;-66
2022/08/22 09:32:41;;;;;;;7.70;3.17;;;26.00;66.10;;;;;;10077522;28;20029;-66
2022/08/22 09:37:47;;;;;;;5.03;2.70;;;26.00;65.90;;;;;;10070030;28;20021;-65
2022/08/22 09:42:45;;;;;;;4.68;2.60;;;26.10;65.60;;;;;;10062943;28;20034;-65
2022/08/22 09:48:11;;;;;;;4.80;2.40;;;26.00;65.20;;;;;;10066193;28;20513;-66
2022/08/22 09:53:41;;;;;;;3.95;2.90;;;26.20;64.50;;;;;;10048669;28;20763;-66
2022/08/22 09:58:46;;;;;;;5.35;2.67;;;26.30;63.80;;;;;;10043380;28;20032;-65
2022/08/22 10:04:05;;;;;;;3.92;2.85;;;26.60;63.60;;;;;;10078319;28;20543;-66
2022/08/22 10:09:09;;;;;;;3.08;2.13;;;26.70;63.00;;;;;;10026595;28;20033;-65
2022/08/22 10:14:01;;;;;;;5.32;2.65;;;27.00;62.80;;;;;;10062584;28;20040;-65
2022/08/22 10:19:15;;;;;;;8.15;3.40;;;26.90;62.80;;;;;;10055478;28;20108;-66
2022/08/22 10:24:16;;;;;;;5.60;3.30;;;27.20;62.30;;;;;;10052373;28;20044;-66
2022/08/22 10:29:41;;;;;;;5.65;3.13;;;27.20;62.10;;;;;;10039378;28;20461;-65
2022/08/22 10:34:38;;;;;;;5.40;3.00;;;27.20;61.70;;;;;;10044443;28;20022;-66
2022/08/22 10:39:55;;;;;;;5.50;2.25;;;27.40;61.50;;;;;;10056149;28;20469;-65
2022/08/22 10:44:57;;;;;;;6.00;2.58;;;27.60;60.90;;;;;;10059342;28;20508;-65
2022/08/22 10:49:57;;;;;;;5.45;2.75;;;27.50;60.80;;;;;;10052529;28;20493;-65
2022/08/22 10:55:10;;;;;;;3.00;2.10;;;27.50;60.60;;;;;;10036181;28;20133;-66
2022/08/22 11:00:16;;;;;;;4.22;2.10;;;27.50;60.20;;;;;;10050726;28;20021;-65
2022/08/22 11:05:29;;;;;;;5.20;2.00;;;27.50;60.10;;;;;;10056934;28;20038;-66
2022/08/22 11:10:39;;;;;;;3.55;2.25;;;27.90;59.40;;;;;;10065175;28;20043;-66
2022/08/22 11:15:48;;;;;;;4.22;2.42;;;28.10;59.20;;;;;;10068881;28;20471;-65
2022/08/22 11:20:53;;;;;;;4.07;2.22;;;27.90;58.80;;;;;;10057391;28;20017;-66
2022/08/22 11:26:08;;;;;;;2.85;2.05;;;27.90;58.70;;;;;;10070198;28;20036;-66
2022/08/22 11:31:27;;;;;;;4.30;2.08;;;28.10;58.20;;;;;;10050146;28;20073;-66
2022/08/22 11:36:32;;;;;;;3.30;1.70;;;28.20;57.60;;;;;;10053839;28;20037;-66
2022/08/22 11:41:29;;;;;;;4.30;2.17;;;28.00;57.80;;;;;;10044249;28;20507;-65
2022/08/22 11:46:44;;;;;;;5.75;2.47;;;28.10;57.60;;;;;;10040556;28;20577;-65
2022/08/22 11:51:56;;;;;;;3.58;2.30;;;28.10;57.10;;;;;;10025235;28;20045;-67
2022/08/22 11:57:03;;;;;;;2.30;1.92;;;28.30;56.90;;;;;;10070739;28;20096;-67
2022/08/22 12:02:11;;;;;;;6.18;2.20;;;28.60;56.50;;;;;;10042121;28;20032;-66
2022/08/22 12:07:24;;;;;;;5.80;2.33;;;29.00;55.70;;;;;;10066630;28;20026;-66
2022/08/22 12:12:15;;;;;;;5.13;2.30;;;29.30;55.40;;;;;;10063692;28;20979;-66
2022/08/22 12:17:21;;;;;;;6.18;2.78;;;29.50;55.20;;;;;;10062978;28;20033;-67
2022/08/22 12:22:37;;;;;;;3.92;2.60;;;29.60;54.60;;;;;;10058866;28;20022;-68
2022/08/22 12:27:37;;;;;;;6.72;3.05;;;29.70;54.50;;;;;;10044506;28;20409;-66
2022/08/22 12:32:52;;;;;;;3.17;2.72;;;29.90;54.40;;;;;;10054338;28;20057;-66
2022/08/22 12:37:54;;;;;;;8.90;2.60;;;29.90;54.30;;;;;;10056404;28;20620;-66
2022/08/22 12:43:06;;;;;;;4.55;2.20;;;30.40;54.40;;;;;;10056263;28;20026;-66
2022/08/22 12:48:11;;;;;;;4.22;2.30;;;31.30;54.20;;;;;;10049864;28;20404;-67
2022/08/22 12:53:24;;;;;;;3.88;2.20;;;31.90;54.00;;;;;;10054447;28;20576;-66
2022/08/22 12:58:40;;;;;;;3.90;2.13;;;32.70;53.00;;;;;;10039215;28;20025;-67
2022/08/22 13:03:52;;;;;;;5.63;3.03;;;33.30;52.80;;;;;;10050937;28;20032;-65
2022/08/22 13:08:44;;;;;;;7.72;2.33;;;33.00;52.50;;;;;;10056692;28;20037;-65
2022/08/22 13:13:50;;;;;;;4.18;2.13;;;33.30;52.20;;;;;;10065542;28;20337;-66
2022/08/22 13:18:54;;;;;;;3.40;2.03;;;34.20;50.80;;;;;;10053181;28;20038;-66
2022/08/22 13:23:52;;;;;;;4.75;2.10;;;34.90;49.90;;;;;;10056232;28;20029;-66
2022/08/22 13:29:00;;;;;;;3.28;1.80;;;35.40;48.40;;;;;;10061220;28;20526;-66
2022/08/22 13:33:57;;;;;;;2.70;2.15;;;36.50;47.20;;;;;;10055668;28;20455;-67
2022/08/22 13:39:01;;;;;;;3.92;2.20;;;36.70;46.00;;;;;;10068520;28;20061;-66
2022/08/22 13:44:05;;;;;;;2.38;2.08;;;37.30;44.70;;;;;;10047455;28;20053;-66
2022/08/22 13:48:59;;;;;;;4.10;2.35;;;37.70;43.30;;;;;;10054977;28;20052;-68
2022/08/22 13:54:01;;;;;;;3.33;2.30;;;37.30;43.60;;;;;;10053535;28;20022;-66
2022/08/22 13:59:03;;;;;;;6.85;2.33;;;37.30;42.60;;;;;;10044503;28;20029;-65
2022/08/22 14:03:56;;;;;;;4.28;2.38;;;37.90;41.90;;;;;;10035058;28;20037;-65
2022/08/22 14:08:48;;;;;;;2.42;1.83;;;37.60;41.80;;;;;;10055934;28;20025;-65
2022/08/22 14:13:59;;;;;;;6.00;2.40;;;38.30;41.20;;;;;;10062771;28;20021;-66
2022/08/22 14:18:56;;;;;;;3.60;2.28;;;36.60;40.80;;;;;;10049845;28;20021;-66
2022/08/22 14:23:52;;;;;;;4.03;2.78;;;36.20;41.50;;;;;;10052829;28;20045;-67
2022/08/22 14:28:43;;;;;;;4.13;2.05;;;36.90;40.70;;;;;;10051896;28;20072;-65
2022/08/22 14:33:37;;;;;;;4.88;2.42;;;38.00;39.90;;;;;;10061817;28;20025;-66
2022/08/22 14:38:31;;;;;;;5.25;2.42;;;38.80;39.90;;;;;;10062479;28;20020;-66
2022/08/22 14:43:27;;;;;;;3.47;2.25;;;39.10;38.80;;;;;;10060151;28;20391;-65
2022/08/22 14:48:26;;;;;;;3.35;2.15;;;39.40;38.10;;;;;;10052251;28;20068;-66
2022/08/22 14:53:17;;;;;;;2.85;1.90;;;39.70;37.60;;;;;;10049995;28;20029;-65
2022/08/22 14:58:16;;;;;;;3.65;2.40;;;39.70;37.20;;;;;;10055342;28;20377;-66
2022/08/22 15:03:18;;;;;;;2.72;1.88;;;39.40;37.20;;;;;;10044434;28;20029;-67
2022/08/22 15:08:10;;;;;;;3.38;2.42;;;39.70;36.30;;;;;;10027707;28;20475;-67
2022/08/22 15:13:06;;;;;;;3.30;2.30;;;39.60;36.20;;;;;;10068148;28;20017;-65
2022/08/22 15:17:58;;;;;;;4.57;2.10;;;40.60;35.70;;;;;;10054654;28;20021;-66
2022/08/22 15:22:50;;;;;;;4.38;2.10;;;41.00;35.30;;;;;;10045257;28;20029;-65
2022/08/22 15:28:19;;;;;;;3.42;2.15;;;41.70;34.90;;;;;;10065483;28;20088;-64
2022/08/22 15:33:14;;;;;;;3.47;2.22;;;42.10;33.70;;;;;;10053654;28;20034;-66
2022/08/22 15:38:24;;;;;;;3.10;2.10;;;41.60;34.10;;;;;;10057974;28;20267;-66
2022/08/22 15:43:25;;;;;;;4.80;3.13;;;42.60;33.70;;;;;;10065407;28;20431;-66
2022/08/22 15:48:29;;;;;;;2.58;2.33;;;43.70;33.50;;;;;;10060746;28;20033;-66
2022/08/22 15:53:25;;;;;;;2.95;2.58;;;44.70;32.90;;;;;;10058509;28;20046;-65
2022/08/22 15:58:23;;;;;;;4.03;2.67;;;45.20;32.90;;;;;;10049441;28;20480;-66
2022/08/22 16:03:24;;;;;;;3.65;2.70;;;45.80;32.50;;;;;;10046002;28;20028;-67
2022/08/22 16:08:23;;;;;;;2.25;1.95;;;46.30;32.00;;;;;;10048370;28;20291;-66
2022/08/22 16:13:25;;;;;;;3.50;2.25;;;46.10;31.80;;;;;;10074084;28;20022;-66
2022/08/22 16:18:42;;;;;;;3.53;2.40;;;45.80;31.50;;;;;;10061124;28;20518;-66
2022/08/22 16:23:55;;;;;;;6.05;2.50;;;45.70;31.10;;;;;;10040715;28;20041;-65
2022/08/22 16:29:04;;;;;;;6.15;2.55;;;45.50;31.00;;;;;;10059031;28;20503;-66
2022/08/22 16:34:17;;;;;;;4.90;2.33;;;45.90;30.50;;;;;;10060387;28;20029;-66
2022/08/22 16:39:31;;;;;;;3.10;2.38;;;45.70;30.60;;;;;;10050781;28;20076;-66
2022/08/22 16:44:27;;;;;;;2.72;1.92;;;45.70;30.20;;;;;;10058435;28;20026;-65
2022/08/22 16:49:29;;;;;;;2.90;2.20;;;45.70;30.00;;;;;;10059758;28;20030;-65
2022/08/22 16:54:41;;;;;;;3.60;2.58;;;44.40;30.20;;;;;;10056476;28;20053;-66
2022/08/22 16:59:57;;;;;;;2.38;1.95;;;43.20;30.40;;;;;;10055353;28;20109;-67
2022/08/22 17:04:58;;;;;;;3.03;1.70;;;43.30;30.60;;;;;;10042540;28;20034;-66
2022/08/22 17:10:16;;;;;;;3.73;2.20;;;42.60;30.70;;;;;;10063022;28;20506;-66
2022/08/22 17:15:12;;;;;;;3.25;2.15;;;42.40;31.00;;;;;;10053981;28;20029;-66
2022/08/22 17:20:15;;;;;;;15.60;4.00;;;42.30;31.10;;;;;;10054921;28;20017;-66
2022/08/22 17:25:31;;;;;;;4.60;2.40;;;41.70;30.80;;;;;;10068664;28;20395;-66
2022/08/22 17:30:43;;;;;;;2.75;2.22;;;38.20;32.40;;;;;;10045802;28;20196;-66
2022/08/22 17:35:54;;;;;;;5.15;1.90;;;36.00;33.70;;;;;;10061853;28;20060;-66
2022/08/22 17:41:09;;;;;;;3.80;2.40;;;34.40;34.60;;;;;;10056260;28;20022;-67
2022/08/22 17:46:23;;;;;;;5.35;3.97;;;33.80;34.90;;;;;;10059161;28;20559;-67
2022/08/22 17:51:41;;;;;;;7.32;2.53;;;33.40;35.10;;;;;;10050697;28;20035;-67
2022/08/22 17:56:40;;;;;;;2.67;2.13;;;33.00;35.40;;;;;;10053912;28;20365;-67
2022/08/22 18:01:54;;;;;;;3.22;2.20;;;32.60;35.60;;;;;;10063949;28;20071;-66
2022/08/22 18:07:12;;;;;;;3.38;2.22;;;32.40;36.10;;;;;;10050819;28;20037;-67
2022/08/22 18:12:30;;;;;;;4.55;2.38;;;32.20;36.40;;;;;;10063624;28;20131;-67
2022/08/22 18:17:38;;;;;;;5.13;3.15;;;32.10;36.70;;;;;;10048146;28;20477;-67
2022/08/22 18:22:34;;;;;;;5.28;2.60;;;31.90;37.10;;;;;;10041689;28;20064;-68
2022/08/22 18:27:45;;;;;;;5.22;3.88;;;31.90;37.20;;;;;;10040149;28;20607;-66
2022/08/22 18:32:52;;;;;;;12.25;3.97;;;31.60;37.50;;;;;;10051507;28;20032;-67
2022/08/22 18:38:21;;;;;;;7.25;4.82;;;31.40;37.80;;;;;;10047173;28;20043;-66
2022/08/22 18:43:27;;;;;;;7.35;3.75;;;31.30;38.40;;;;;;10056021;28;20045;-66
2022/08/22 18:48:29;;;;;;;3.90;2.45;;;31.10;39.10;;;;;;10052455;28;20037;-67
2022/08/22 18:53:37;;;;;;;4.50;2.55;;;31.10;38.40;;;;;;10040095;28;20025;-66
2022/08/22 18:58:55;;;;;;;5.60;3.20;;;30.80;38.70;;;;;;10048095;28;20376;-67
2022/08/22 19:04:02;;;;;;;7.07;3.40;;;30.80;39.40;;;;;;10044681;28;20037;-67
2022/08/22 19:09:30;;;;;;;6.55;4.93;;;30.70;39.10;;;;;;10052307;28;20082;-66
2022/08/22 19:15:06;;;;;;;6.43;5.22;;;30.70;39.50;;;;;;10064613;28;20016;-66
2022/08/22 19:26:15;;;;;;;9.35;4.57;;;30.50;40.10;;;;;;10071209;28;20063;-66
2022/08/22 19:31:24;;;;;;;9.40;5.68;;;30.30;40.40;;;;;;10053696;28;20363;-66
2022/08/22 19:36:32;;;;;;;9.80;4.85;;;30.20;40.70;;;;;;10032814;28;20029;-66
2022/08/22 19:41:58;;;;;;;12.45;6.30;;;30.10;41.20;;;;;;10065333;28;20403;-65
2022/08/22 19:47:11;;;;;;;11.07;5.32;;;30.10;41.70;;;;;;10018023;28;20263;-66
2022/08/22 19:52:22;;;;;;;11.65;5.45;;;30.00;42.00;;;;;;10055432;28;20076;-67
2022/08/22 19:57:52;;;;;;;11.02;6.25;;;29.80;42.00;;;;;;10058238;28;20025;-66
2022/08/22 20:03:02;;;;;;;8.40;6.05;;;29.80;42.70;;;;;;10043347;28;20033;-67
2022/08/22 20:08:16;;;;;;;8.88;4.25;;;29.80;43.00;;;;;;10060207;28;20038;-66
2022/08/22 20:13:18;;;;;;;5.80;4.47;;;29.90;43.10;;;;;;10046675;28;20048;-67
2022/08/22 20:18:09;;;;;;;5.32;3.40;;;29.90;43.00;;;;;;10056778;28;20276;-67
2022/08/22 20:23:23;;;;;;;5.35;3.75;;;29.80;43.10;;;;;;10058022;28;20021;-66
2022/08/22 20:28:29;;;;;;;7.07;3.60;;;29.90;43.40;;;;;;10069677;28;20160;-66
2022/08/22 20:33:26;;;;;;;5.75;4.82;;;29.70;43.50;;;;;;10065805;28;20101;-66
2022/08/22 20:38:23;;;;;;;6.63;4.30;;;29.50;43.70;;;;;;10064901;28;20029;-66
2022/08/22 20:43:26;;;;;;;6.47;4.43;;;29.40;44.00;;;;;;10062705;28;20163;-67
2022/08/22 20:48:16;;;;;;;11.13;5.28;;;29.40;44.20;;;;;;10054852;28;20041;-66
2022/08/22 20:53:20;;;;;;;9.45;4.55;;;29.40;44.40;;;;;;10056022;28;20357;-66
2022/08/22 20:58:24;;;;;;;5.38;4.25;;;29.30;44.80;;;;;;10036772;28;20021;-66
2022/08/22 21:03:27;;;;;;;4.78;3.28;;;29.20;45.10;;;;;;10037815;28;20519;-66
2022/08/22 21:08:22;;;;;;;7.85;3.95;;;29.10;45.20;;;;;;10041712;28;20048;-66
2022/08/22 21:13:21;;;;;;;7.32;3.70;;;29.20;45.20;;;;;;10049560;28;20034;-65
2022/08/22 21:18:22;;;;;;;5.88;4.45;;;29.30;45.30;;;;;;10061121;28;20109;-65
2022/08/22 21:23:14;;;;;;;6.75;3.75;;;29.30;45.30;;;;;;10054821;28;20108;-66
2022/08/22 21:28:05;;;;;;;8.57;2.63;;;29.00;45.70;;;;;;10075835;28;20084;-67
2022/08/22 21:32:56;;;;;;;3.95;2.90;;;29.10;45.70;;;;;;10083300;28;20022;-67
2022/08/22 21:37:47;;;;;;;4.28;3.35;;;29.00;45.80;;;;;;10077102;28;20036;-65
2022/08/22 21:42:40;;;;;;;5.28;3.20;;;29.00;46.10;;;;;;10042951;28;20116;-65
2022/08/22 21:47:37;;;;;;;6.40;3.22;;;28.90;46.30;;;;;;10067974;28;20045;-66
2022/08/22 21:52:29;;;;;;;5.85;3.25;;;28.80;46.50;;;;;;10062342;28;20518;-66
2022/08/22 21:57:33;;;;;;;4.57;3.08;;;28.70;46.80;;;;;;10044823;28;20033;-65
2022/08/22 22:02:30;;;;;;;6.80;3.55;;;28.60;47.10;;;;;;10064812;28;20032;-65
2022/08/22 22:07:21;;;;;;;3.83;2.90;;;28.50;47.40;;;;;;10067183;28;20041;-66
2022/08/22 22:12:12;;;;;;;4.10;3.15;;;28.50;48.20;;;;;;10052537;28;20096;-65
2022/08/22 22:17:03;;;;;;;5.22;2.97;;;28.50;47.60;;;;;;10060111;28;20025;-66
2022/08/22 22:21:53;;;;;;;5.32;3.28;;;28.30;47.70;;;;;;10050823;28;20036;-65
2022/08/22 22:26:44;;;;;;;5.18;2.90;;;28.30;48.10;;;;;;10054658;28;20052;-65
2022/08/22 22:31:35;;;;;;;6.50;3.85;;;28.40;48.20;;;;;;10066786;28;20021;-66
2022/08/22 22:36:26;;;;;;;8.63;4.32;;;28.30;48.20;;;;;;10074317;28;20029;-66
2022/08/22 22:41:18;;;;;;;5.57;3.22;;;27.70;49.10;;;;;;10066385;28;20030;-66
2022/08/22 22:46:08;;;;;;;3.88;2.90;;;27.30;49.90;;;;;;10062546;28;20065;-66
2022/08/22 22:51:05;;;;;;;3.65;2.28;;;27.10;50.30;;;;;;10071603;28;20479;-65
2022/08/22 22:55:56;;;;;;;4.15;2.20;;;27.10;50.70;;;;;;10069847;28;20036;-65
2022/08/22 23:00:47;;;;;;;3.33;2.67;;;27.10;50.60;;;;;;10054073;28;20025;-65
2022/08/22 23:05:37;;;;;;;4.20;2.00;;;27.10;50.60;;;;;;10066067;28;20037;-65
2022/08/22 23:10:29;;;;;;;2.60;2.03;;;27.00;50.90;;;;;;10068808;28;20026;-65
2022/08/22 23:15:20;;;;;;;5.03;2.00;;;26.70;51.10;;;;;;10074932;28;20060;-65
2022/08/22 23:20:11;;;;;;;4.25;1.58;;;26.90;51.30;;;;;;10055976;28;20155;-65
2022/08/22 23:25:02;;;;;;;2.28;1.55;;;26.80;51.20;;;;;;10065513;28;20393;-65
2022/08/22 23:29:53;;;;;;;6.28;1.65;;;26.60;51.50;;;;;;10064927;28;20045;-66
2022/08/22 23:34:47;;;;;;;3.33;1.60;;;26.50;51.90;;;;;;10065604;28;20040;-66
2022/08/22 23:39:37;;;;;;;3.20;1.70;;;26.30;52.20;;;;;;10072927;28;20136;-66
2022/08/22 23:44:31;;;;;;;3.75;1.80;;;26.60;51.80;;;;;;10063698;28;20119;-66
2022/08/22 23:49:22;;;;;;;3.03;1.70;;;26.30;51.90;;;;;;10066501;28;20021;-66
2022/08/22 23:54:14;;;;;;;3.78;2.28;;;26.30;52.20;;;;;;10070918;28;20038;-66
2022/08/22 23:59:10;;;;;;;4.38;2.00;;;26.30;52.20;;;;;;10065662;28;20014;-66
